MAPA DE AEROPUERTO

INFORMACIÓN METAR y TAF


Deprecated: The each() function is deprecated. This message will be suppressed on further calls in /home/customer/www/clickair-va.com/public_html/VAM/vam/helpers/get_metar.php on line 20
METAR FOR LEVC
ADDS - METARS form results

(0342 UTC 25 May 2022)
Data provider http://aviationweather.gov/metar/data/
 
METAR text: LEVC 250330Z 27007KT CAVOK 12/09 Q1014 NOSIG
Conditions at: LEVC (VALENCIA (CIV/MI, ES) observed 0330 UTC 25 May 2022
Temperature: 12.0°C (54°F)
Dewpoint: 9.0°C (48°F) [RH = 82%]
Pressure (altimeter): 29.94 inches Hg (1014.0 mb)
Winds: from the W (270 degrees) at 8 MPH (7 knots; 3.6 m/s)
Visibility: 6 or more miles (10+ km)
Ceiling: ceiling and visibility are OK
Clouds: unknown
Weather: no significant weather observed at this time

METAR text: LEVC 250300Z 29007KT 260V320 CAVOK 13/09 Q1014 NOSIG
Conditions at: LEVC (VALENCIA (CIV/MI, ES) observed 0300 UTC 25 May 2022
Temperature: 13.0°C (55°F)
Dewpoint: 9.0°C (48°F) [RH = 77%]
Pressure (altimeter): 29.94 inches Hg (1014.0 mb)
Winds: from the WNW (290 degrees) at 8 MPH (7 knots; 3.6 m/s)
Visibility: 6 or more miles (10+ km)
Ceiling: ceiling and visibility are OK
Clouds: unknown
Weather: no significant weather observed at this time

Forecast for: LEVC (VALENCIA (CIV/MI, ES)
Text: TAF LEVC 242300Z 2500/2524 VRB05KT 9999 BKN025 TX24/2513Z TN12/2506Z
Forecast period: 0000 to 0700 UTC 25 May 2022
Forecast type: FROM: standard forecast or significant change
Winds: variable direction winds at 6 MPH (5 knots; 2.6 m/s)
Visibility: 6 or more miles (10+ km)
Ceiling: 2500 feet AGL
Clouds: broken clouds at 2500 feet AGL
Weather: no significant weather forecast for this period
Text: BECMG 2507/2510 08010KT
Forecast period: 0700 to 1900 UTC 25 May 2022
Forecast type: BECOMING: Conditions expected to become as follows by 1000 UTC 25 May 2022
Winds: from the E (80 degrees) at 12 MPH (10 knots; 5.1 m/s)
Visibility: 6 or more miles (10+ km)
Ceiling: 2500 feet AGL
Clouds: broken clouds at 2500 feet AGL
Weather: no significant weather forecast for this period
Text: BECMG 2519/2522 31005KT
Forecast period: 1900 UTC 25 May 2022 to 0000 UTC 26 May 2022
Forecast type: BECOMING: Conditions expected to become as follows by 2200 UTC 25 May 2022
Winds: from the NW (310 degrees) at 6 MPH (5 knots; 2.6 m/s)
Visibility: 6 or more miles (10+ km)
Ceiling: 2500 feet AGL
Clouds: broken clouds at 2500 feet AGL
Weather: no significant weather forecast for this period